createdAt,value
2018-12-13T00:02:08.967Z,97045.45
2018-12-13T00:04:36.395Z,97041.92
2018-12-13T00:07:03.809Z,97036.75
2018-12-13T00:09:31.206Z,97035.72
2018-12-13T00:11:58.624Z,97035.83
2018-12-13T00:14:26.654Z,97036.08
2018-12-13T00:16:54.094Z,97032.34
2018-12-13T00:19:21.568Z,97028.83
2018-12-13T00:21:48.999Z,97023.52
2018-12-13T00:24:16.459Z,97024.02
2018-12-13T00:26:43.989Z,97023.55
2018-12-13T00:29:11.390Z,97019.61
2018-12-13T00:31:38.820Z,97019.50
2018-12-13T00:34:06.278Z,97018.03
2018-12-13T00:36:39.508Z,97014.16
2018-12-13T00:39:01.170Z,97014.75
2018-12-13T00:41:28.566Z,97008.57
2018-12-13T00:43:56.030Z,97006.62
2018-12-13T00:46:23.444Z,97013.22
2018-12-13T00:48:51.121Z,97008.86
2018-12-13T00:51:18.517Z,97004.91
2018-12-13T00:53:45.936Z,97002.84
2018-12-13T00:56:13.372Z,97012.41
2018-12-13T00:58:40.771Z,97001.03
2018-12-13T01:01:08.235Z,96997.19
2018-12-13T01:03:35.725Z,96998.13
2018-12-13T01:06:03.152Z,96999.39
2018-12-13T01:08:30.607Z,96998.90
2018-12-13T01:10:58.147Z,96988.91
2018-12-13T01:13:25.611Z,96990.20
2018-12-13T01:15:53.026Z,96982.72
2018-12-13T01:18:20.418Z,96986.95
2018-12-13T01:20:47.828Z,96989.42
2018-12-13T01:23:15.324Z,96982.16
2018-12-13T01:25:42.731Z,96986.00
2018-12-13T01:28:10.263Z,96981.29
2018-12-13T01:30:37.675Z,96982.89
2018-12-13T01:33:05.080Z,96983.69
2018-12-13T01:35:32.490Z,96973.28
2018-12-13T01:38:00.137Z,96973.88
2018-12-13T01:40:28.100Z,96964.62
2018-12-13T01:42:55.507Z,96973.41
2018-12-13T01:45:22.904Z,96974.70
2018-12-13T01:47:50.586Z,96969.47
2018-12-13T01:50:17.995Z,96977.01
2018-12-13T01:52:45.407Z,96968.77
2018-12-13T01:55:13.135Z,96973.55
2018-12-13T01:57:40.547Z,96965.03
2018-12-13T02:00:07.941Z,96967.44
2018-12-13T02:02:35.364Z,96961.05
2018-12-13T02:05:02.848Z,96953.72
2018-12-13T02:07:30.252Z,96949.14
2018-12-13T02:09:57.646Z,96943.34
2018-12-13T02:12:25.060Z,96943.16
2018-12-13T02:14:53.079Z,96952.97
2018-12-13T02:17:21.054Z,96947.38
2018-12-13T02:19:48.467Z,96937.11
2018-12-13T02:22:15.936Z,96938.78
2018-12-13T02:24:43.498Z,96939.66
2018-12-13T02:27:10.923Z,96934.56
2018-12-13T02:29:38.412Z,96938.09
2018-12-13T02:32:05.814Z,96936.60
2018-12-13T02:34:33.493Z,96933.29
2018-12-13T02:37:06.080Z,96936.75
2018-12-13T02:39:28.500Z,96929.55
2018-12-13T02:41:55.922Z,96924.81
2018-12-13T02:44:23.314Z,96923.52
2018-12-13T02:46:50.741Z,96926.88
2018-12-13T02:49:18.666Z,96924.30
2018-12-13T02:51:46.064Z,96929.00
2018-12-13T02:54:13.461Z,96921.61
2018-12-13T02:56:40.902Z,96918.60
2018-12-13T02:59:08.315Z,96926.80
2018-12-13T03:01:35.702Z,96924.50
2018-12-13T03:04:03.128Z,96911.76
2018-12-13T03:06:30.751Z,96911.55
2018-12-13T03:08:58.161Z,96908.74
2018-12-13T03:11:25.574Z,96900.35
2018-12-13T03:13:53.023Z,96908.34
2018-12-13T03:16:20.548Z,96899.25
2018-12-13T03:18:47.973Z,96895.00
2018-12-13T03:21:15.431Z,96890.21
2018-12-13T03:23:42.984Z,96887.84
2018-12-13T03:26:10.559Z,96890.70
2018-12-13T03:28:37.998Z,96885.45
2018-12-13T03:31:05.404Z,96879.22
2018-12-13T03:33:32.867Z,96879.98
2018-12-13T03:36:00.294Z,96879.38
2018-12-13T03:38:27.719Z,96874.59
2018-12-13T03:40:55.135Z,96877.75
2018-12-13T03:43:22.633Z,96872.77
2018-12-13T03:45:50.028Z,96867.90
2018-12-13T03:48:17.446Z,96865.66
2018-12-13T03:50:45.160Z,96858.89
2018-12-13T03:53:12.674Z,96858.09
2018-12-13T03:55:40.084Z,96855.20
2018-12-13T03:58:08.065Z,96864.05
2018-12-13T04:00:35.503Z,96857.25
2018-12-13T04:03:02.929Z,96856.15
2018-12-13T04:05:30.386Z,96855.91
2018-12-13T04:07:58.571Z,96847.20
2018-12-13T04:10:25.966Z,96857.09
2018-12-13T04:12:53.398Z,96845.50
2018-12-13T04:15:20.803Z,96847.21
2018-12-13T04:17:48.216Z,96855.20
2018-12-13T04:20:15.616Z,96852.75
2018-12-13T04:22:43.059Z,96852.30
2018-12-13T04:25:10.494Z,96849.61
2018-12-13T04:27:37.907Z,96845.81
2018-12-13T04:30:05.313Z,96845.81
2018-12-13T04:32:33.583Z,96851.85
2018-12-13T04:35:00.991Z,96852.87
2018-12-13T04:37:35.076Z,96858.53
2018-12-13T04:39:55.833Z,96848.23
2018-12-13T04:42:23.268Z,96852.42
2018-12-13T04:44:50.711Z,96847.92
2018-12-13T04:47:18.124Z,96850.89
2018-12-13T04:49:45.533Z,96854.78
2018-12-13T04:52:12.946Z,96852.45
2018-12-13T04:54:40.356Z,96850.58
2018-12-13T04:57:07.777Z,96843.44
2018-12-13T04:59:35.231Z,96849.92
2018-12-13T05:02:02.647Z,96847.77
2018-12-13T05:04:30.044Z,96845.87
2018-12-13T05:06:57.914Z,96838.95
2018-12-13T05:09:26.101Z,96846.16
2018-12-13T05:11:53.563Z,96845.30
2018-12-13T05:14:21.084Z,96849.55
2018-12-13T05:16:48.500Z,96839.47
2018-12-13T05:19:15.931Z,96840.69
2018-12-13T05:21:43.358Z,96844.98
2018-12-13T05:24:10.793Z,96841.52
2018-12-13T05:26:38.272Z,96841.32
2018-12-13T05:29:05.645Z,96844.42
2018-12-13T05:31:33.238Z,96843.97
2018-12-13T05:34:00.649Z,96839.70
2018-12-13T05:36:28.485Z,96840.20
2018-12-13T05:38:55.907Z,96835.48
2018-12-13T05:41:23.320Z,96838.87
2018-12-13T05:43:50.756Z,96838.30
2018-12-13T05:46:18.178Z,96838.89
2018-12-13T05:48:45.610Z,96835.69
2018-12-13T05:51:13.043Z,96839.98
2018-12-13T05:53:40.426Z,96847.00
2018-12-13T05:56:08.678Z,96841.11
2018-12-13T05:58:36.120Z,96846.45
2018-12-13T06:01:03.573Z,96841.91
2018-12-13T06:03:30.983Z,96846.09
2018-12-13T06:05:58.443Z,96843.78
2018-12-13T06:08:25.871Z,96841.27
2018-12-13T06:10:53.295Z,96839.59
2018-12-13T06:13:20.781Z,96842.50
2018-12-13T06:15:48.213Z,96844.59
2018-12-13T06:18:15.634Z,96845.70
2018-12-13T06:20:43.075Z,96846.16
2018-12-13T06:23:10.502Z,96850.88
2018-12-13T06:25:37.887Z,96847.21
2018-12-13T06:28:05.337Z,96844.56
2018-12-13T06:30:32.820Z,96846.65
2018-12-13T06:33:00.308Z,96838.69
2018-12-13T06:35:27.751Z,96843.44
2018-12-13T06:38:01.068Z,96834.81
2018-12-13T06:40:22.564Z,96829.30
2018-12-13T06:42:50.023Z,96827.73
2018-12-13T06:45:17.479Z,96823.87
2018-12-13T06:47:44.890Z,96827.19
2018-12-13T06:50:12.700Z,96824.50
2018-12-13T06:52:40.106Z,96821.25
2018-12-13T06:55:07.519Z,96819.01
2018-12-13T06:57:34.949Z,96817.42
2018-12-13T07:00:02.379Z,96821.86
2018-12-13T07:02:29.890Z,96817.68
2018-12-13T07:04:57.276Z,96818.52
2018-12-13T07:07:24.711Z,96823.87
2018-12-13T07:09:52.190Z,96824.14
2018-12-13T07:12:19.598Z,96820.92
2018-12-13T07:14:47.024Z,96816.05
2018-12-13T07:17:14.462Z,96813.64
2018-12-13T07:19:41.881Z,96807.77
2018-12-13T07:22:10.093Z,96815.91
2018-12-13T07:24:37.623Z,96812.98
2018-12-13T07:27:05.061Z,96815.64
2018-12-13T07:29:32.464Z,96810.59
2018-12-13T07:31:59.884Z,96811.27
2018-12-13T07:34:27.354Z,96816.25
2018-12-13T07:36:54.766Z,96815.00
2018-12-13T07:39:22.766Z,96804.55
2018-12-13T07:41:50.215Z,96809.91
2018-12-13T07:44:17.629Z,96801.55
2018-12-13T07:46:45.169Z,96797.33
2018-12-13T07:49:13.503Z,96793.30
2018-12-13T07:51:41.057Z,96788.44
2018-12-13T07:54:08.463Z,96789.51
2018-12-13T07:56:35.916Z,96790.88
2018-12-13T07:59:03.317Z,96789.50
2018-12-13T08:01:30.775Z,96789.63
2018-12-13T08:03:58.195Z,96786.88
2018-12-13T08:06:26.509Z,96781.34
2018-12-13T08:08:54.808Z,96782.14
2018-12-13T08:11:22.235Z,96780.58
2018-12-13T08:13:50.207Z,96783.77
2018-12-13T08:16:17.645Z,96786.70
2018-12-13T08:18:45.098Z,96780.12
2018-12-13T08:21:12.626Z,96779.67
2018-12-13T08:23:40.061Z,96781.34
2018-12-13T08:26:07.553Z,96777.27
2018-12-13T08:28:35.052Z,96780.50
2018-12-13T08:31:02.535Z,96782.41
2018-12-13T08:33:29.937Z,96766.08
2018-12-13T08:35:57.346Z,96766.88
2018-12-13T08:38:27.421Z,96764.95
2018-12-13T08:40:53.208Z,96762.09
2018-12-13T08:43:21.331Z,96758.53
2018-12-13T08:45:48.857Z,96756.66
2018-12-13T08:48:16.387Z,96761.54
2018-12-13T08:50:43.842Z,96759.41
2018-12-13T08:53:11.268Z,96758.86
2018-12-13T08:55:38.690Z,96762.77
2018-12-13T08:58:06.090Z,96761.81
2018-12-13T09:00:33.498Z,96766.23
2018-12-13T09:03:01.819Z,96763.27
2018-12-13T09:05:29.245Z,96756.05
2018-12-13T09:07:56.655Z,96760.47
2018-12-13T09:10:24.074Z,96755.61
2018-12-13T09:12:51.487Z,96753.34
2018-12-13T09:15:19.816Z,96752.69
2018-12-13T09:17:46.322Z,96746.77
2018-12-13T09:20:13.749Z,96746.19
2018-12-13T09:22:41.210Z,96744.03
2018-12-13T09:25:08.569Z,96745.66
2018-12-13T09:27:36.049Z,96744.50
2018-12-13T09:30:03.870Z,96746.37
2018-12-13T09:32:31.279Z,96743.00
2018-12-13T09:34:58.692Z,96753.58
2018-12-13T09:37:26.121Z,96748.70
2018-12-13T09:39:53.536Z,96743.27
2018-12-13T09:42:21.317Z,96739.72
2018-12-13T09:44:48.299Z,96738.17
2018-12-13T09:47:15.245Z,96724.68
2018-12-13T09:49:42.240Z,96726.29
2018-12-13T09:52:10.070Z,96723.61
2018-12-13T09:54:37.067Z,96721.48
2018-12-13T09:57:04.116Z,96718.89
2018-12-13T09:59:31.129Z,96724.03
2018-12-13T10:01:58.532Z,96722.16
2018-12-13T10:04:26.019Z,96722.53
2018-12-13T10:06:53.124Z,96707.78
2018-12-13T10:09:20.142Z,96711.43
2018-12-13T10:11:47.101Z,96705.45
2018-12-13T10:14:14.547Z,96709.70
2018-12-13T10:16:41.511Z,96716.80
2018-12-13T10:19:08.975Z,96711.45
2018-12-13T10:21:35.919Z,96715.87
2018-12-13T10:24:02.870Z,96709.41
2018-12-13T10:26:29.813Z,96699.08
2018-12-13T10:28:57.258Z,96700.70
2018-12-13T10:31:24.683Z,96686.03
2018-12-13T10:33:52.204Z,96679.08
2018-12-13T10:36:19.254Z,96672.17
2018-12-13T10:38:52.797Z,96670.17
2018-12-13T10:41:14.048Z,96664.95
2018-12-13T10:43:41.518Z,96657.20
2018-12-13T10:46:08.466Z,96653.39
2018-12-13T10:48:35.411Z,96657.54
2018-12-13T10:51:02.827Z,96660.77
2018-12-13T10:53:30.278Z,96655.37
2018-12-13T10:55:57.215Z,96654.84
2018-12-13T10:58:24.175Z,96651.90
2018-12-13T11:03:47.757Z,96645.72
2018-12-13T11:06:15.228Z,96653.93
2018-12-13T11:08:42.661Z,96648.00
2018-12-13T11:11:09.595Z,96646.17
2018-12-13T11:13:36.712Z,96639.27
2018-12-13T11:16:04.212Z,96636.26
2018-12-13T11:18:31.370Z,96619.59
2018-12-13T11:21:01.089Z,96612.22
2018-12-13T11:23:28.531Z,96609.48
2018-12-13T11:25:56.013Z,96603.95
2018-12-13T11:31:23.656Z,96604.05
2018-12-13T11:33:51.085Z,96603.14
2018-12-13T11:36:19.692Z,96603.98
2018-12-13T11:38:47.163Z,96608.36
2018-12-13T11:41:14.640Z,96602.68
2018-12-13T11:43:42.059Z,96605.31
2018-12-13T11:46:09.607Z,96610.46
2018-12-13T11:48:37.022Z,96603.97
2018-12-13T11:51:04.412Z,96604.91
2018-12-13T11:53:31.890Z,96598.50
2018-12-13T11:55:59.294Z,96592.46
2018-12-13T11:58:26.746Z,96591.23
2018-12-13T12:00:54.314Z,96598.14
2018-12-13T12:03:21.739Z,96583.41
2018-12-13T12:05:49.221Z,96584.31
2018-12-13T12:08:16.647Z,96592.93
2018-12-13T12:10:44.911Z,96590.81
2018-12-13T12:13:12.499Z,96590.00
2018-12-13T12:15:39.948Z,96589.30
2018-12-13T12:18:08.315Z,96585.33
2018-12-13T12:20:35.711Z,96579.26
2018-12-13T12:23:04.955Z,96571.80
2018-12-13T12:25:32.387Z,96568.48
2018-12-13T12:28:00.370Z,96556.62
2018-12-13T12:30:27.802Z,96552.24
2018-12-13T12:32:55.340Z,96551.72
2018-12-13T12:35:23.156Z,96549.16
2018-12-13T12:37:50.622Z,96551.71
2018-12-13T12:40:18.136Z,96559.89
2018-12-13T12:42:47.385Z,96554.70
2018-12-13T12:45:14.854Z,96561.98
2018-12-13T12:47:42.332Z,96562.52
2018-12-13T12:50:09.722Z,96568.56
2018-12-13T12:52:37.125Z,96567.43
2018-12-13T12:55:05.275Z,96566.31
2018-12-13T12:57:33.036Z,96568.00
2018-12-13T13:00:00.478Z,96564.10
2018-12-13T13:02:27.889Z,96564.55
2018-12-13T13:04:55.332Z,96556.37
2018-12-13T13:07:22.777Z,96553.98
2018-12-13T13:09:50.240Z,96546.00
2018-12-13T13:12:17.644Z,96550.92
2018-12-13T13:14:45.766Z,96548.16
2018-12-13T13:17:13.920Z,96542.83
2018-12-13T13:19:41.366Z,96538.88
2018-12-13T13:22:09.375Z,96537.94
2018-12-13T13:24:37.462Z,96546.67
2018-12-13T13:27:05.728Z,96537.39
2018-12-13T13:29:33.333Z,96535.67
2018-12-13T13:32:00.763Z,96536.06
2018-12-13T13:34:28.238Z,96533.53
2018-12-13T13:36:55.752Z,96530.14
2018-12-13T13:39:23.732Z,96527.69
2018-12-13T13:41:51.132Z,96531.03
2018-12-13T13:44:19.332Z,96526.23
2018-12-13T13:46:48.202Z,96533.45
2018-12-13T13:49:15.649Z,96529.03
2018-12-13T13:51:43.141Z,96517.36
2018-12-13T13:54:10.655Z,96525.48
2018-12-13T13:56:38.066Z,96518.39
2018-12-13T13:59:05.612Z,96533.27
2018-12-13T14:01:33.019Z,96522.80
2018-12-13T14:04:00.475Z,96524.45
2018-12-13T14:06:27.920Z,96530.81
2018-12-13T14:08:55.331Z,96527.71
2018-12-13T14:11:22.852Z,96518.13
2018-12-13T14:13:50.227Z,96522.02
2018-12-13T14:16:17.644Z,96526.44
2018-12-13T14:18:45.040Z,96524.72
2018-12-13T14:21:12.616Z,96527.05
2018-12-13T14:23:40.033Z,96521.80
2018-12-13T14:26:07.475Z,96524.70
2018-12-13T14:28:34.921Z,96529.75
2018-12-13T14:31:02.490Z,96524.13
2018-12-13T14:33:29.912Z,96529.53
2018-12-13T14:35:57.459Z,96534.30
2018-12-13T14:38:24.956Z,96524.96
2018-12-13T14:40:52.513Z,96533.62
2018-12-13T14:43:19.996Z,96526.39
2018-12-13T14:45:48.023Z,96533.23
2018-12-13T14:48:15.440Z,96536.48
2018-12-13T14:50:43.861Z,96536.74
2018-12-13T14:53:11.288Z,96540.05
2018-12-13T14:55:38.750Z,96535.59
2018-12-13T14:58:06.150Z,96532.26
2018-12-13T15:00:33.661Z,96533.55
2018-12-13T15:03:01.156Z,96538.55
2018-12-13T15:05:28.554Z,96529.98
2018-12-13T15:07:56.874Z,96529.56
2018-12-13T15:10:24.477Z,96529.58
2018-12-13T15:12:51.939Z,96528.70
2018-12-13T15:15:19.443Z,96525.59
2018-12-13T15:17:46.851Z,96524.23
2018-12-13T15:20:14.303Z,96520.19
2018-12-13T15:22:41.724Z,96529.33
2018-12-13T15:25:09.656Z,96531.80
2018-12-13T15:27:37.081Z,96540.52
2018-12-13T15:30:04.512Z,96533.97
2018-12-13T15:32:32.819Z,96538.73
2018-12-13T15:35:00.214Z,96540.98
2018-12-13T15:37:27.626Z,96544.55
2018-12-13T15:39:57.329Z,96533.81
2018-12-13T15:42:22.835Z,96537.55
2018-12-13T15:44:50.250Z,96536.00
2018-12-13T15:47:17.668Z,96532.11
2018-12-13T15:49:45.247Z,96535.64
2018-12-13T15:52:12.689Z,96529.88
2018-12-13T15:54:40.115Z,96539.94
2018-12-13T15:57:07.541Z,96531.17
2018-12-13T15:59:35.015Z,96535.02
2018-12-13T16:02:02.428Z,96534.29
2018-12-13T16:04:30.561Z,96535.84
2018-12-13T16:06:58.407Z,96536.69
2018-12-13T16:09:25.873Z,96532.53
2018-12-13T16:11:53.253Z,96538.50
2018-12-13T16:14:21.551Z,96544.86
2018-12-13T16:16:49.046Z,96543.27
2018-12-13T16:19:16.754Z,96547.05
2018-12-13T16:21:44.158Z,96542.52
2018-12-13T16:24:11.566Z,96539.42
2018-12-13T16:26:39.127Z,96547.41
2018-12-13T16:29:06.601Z,96549.38
2018-12-13T16:31:34.231Z,96542.16
2018-12-13T16:34:01.642Z,96552.12
2018-12-13T16:36:29.144Z,96555.59
2018-12-13T16:38:56.630Z,96559.53
2018-12-13T16:41:24.079Z,96562.48
2018-12-13T16:43:51.675Z,96565.86
2018-12-13T16:46:19.100Z,96569.18
2018-12-13T16:48:46.692Z,96565.45
2018-12-13T16:51:14.141Z,96570.06
2018-12-13T16:53:41.565Z,96559.37
2018-12-13T16:56:09.088Z,96552.38
2018-12-13T16:58:36.500Z,96557.52
2018-12-13T17:01:04.010Z,96556.47
2018-12-13T17:03:37.158Z,96553.45
2018-12-13T17:06:04.553Z,96566.20
2018-12-13T17:08:31.984Z,96560.91
2018-12-13T17:10:59.401Z,96560.02
2018-12-13T17:13:26.927Z,96560.15
2018-12-13T17:15:54.583Z,96564.27
2018-12-13T17:18:22.274Z,96559.88
2018-12-13T17:20:49.696Z,96559.94
2018-12-13T17:23:17.148Z,96565.79
2018-12-13T17:25:44.551Z,96559.95
2018-12-13T17:28:12.253Z,96554.86
2018-12-13T17:30:39.925Z,96555.95
2018-12-13T17:33:07.428Z,96562.06
2018-12-13T17:35:34.831Z,96557.24
2018-12-13T17:38:02.436Z,96571.40
2018-12-13T17:40:29.843Z,96562.70
2018-12-13T17:42:57.799Z,96557.30
2018-12-13T17:45:25.245Z,96564.34
2018-12-13T17:47:52.737Z,96567.73
2018-12-13T17:50:20.470Z,96570.27
2018-12-13T17:52:47.882Z,96570.73
2018-12-13T17:55:15.384Z,96571.66
2018-12-13T17:57:42.819Z,96569.58
2018-12-13T18:00:10.298Z,96576.44
2018-12-13T18:02:37.803Z,96587.16
2018-12-13T18:05:06.024Z,96583.22
2018-12-13T18:07:33.447Z,96582.92
2018-12-13T18:10:00.871Z,96571.05
2018-12-13T18:12:29.057Z,96582.30
2018-12-13T18:14:56.496Z,96583.31
2018-12-13T18:17:24.167Z,96585.63
2018-12-13T18:19:52.119Z,96587.54
2018-12-13T18:22:19.628Z,96582.15
2018-12-13T18:24:47.147Z,96578.67
2018-12-13T18:27:15.507Z,96580.76
2018-12-13T18:29:42.906Z,96586.98
2018-12-13T18:32:10.378Z,96588.64
2018-12-13T18:34:38.201Z,96580.64
2018-12-13T18:37:05.765Z,96582.59
2018-12-13T18:39:33.186Z,96583.43
2018-12-13T18:42:00.697Z,96583.53
2018-12-13T18:44:28.169Z,96588.51
2018-12-13T18:46:55.589Z,96580.97
2018-12-13T18:49:23.107Z,96585.47
2018-12-13T18:51:50.562Z,96595.17
2018-12-13T18:54:17.995Z,96595.64
2018-12-13T18:56:45.476Z,96595.45
2018-12-13T18:59:12.932Z,96607.08
2018-12-13T19:01:40.495Z,96600.98
2018-12-13T19:04:07.899Z,96597.06
2018-12-13T19:06:35.584Z,96604.45
2018-12-13T19:09:03.206Z,96608.58
2018-12-13T19:11:30.650Z,96601.82
2018-12-13T19:13:58.193Z,96597.97
2018-12-13T19:16:25.651Z,96604.44
2018-12-13T19:18:53.063Z,96603.29
2018-12-13T19:21:21.038Z,96606.58
2018-12-13T19:23:48.452Z,96609.86
2018-12-13T19:26:15.848Z,96614.02
2018-12-13T19:28:43.278Z,96618.91
2018-12-13T19:31:10.836Z,96620.00
2018-12-13T19:33:38.761Z,96626.39
2018-12-13T19:36:06.190Z,96621.87
2018-12-13T19:38:33.739Z,96615.77
2018-12-13T19:41:01.199Z,96615.72
2018-12-13T19:43:28.923Z,96618.17
2018-12-13T19:45:56.375Z,96618.90
2018-12-13T19:48:23.788Z,96619.55
2018-12-13T19:50:51.509Z,96620.53
2018-12-13T19:53:19.706Z,96625.95
2018-12-13T19:55:47.242Z,96630.80
2018-12-13T19:58:14.681Z,96640.73
2018-12-13T20:00:42.114Z,96641.00
2018-12-13T20:03:10.739Z,96634.26
2018-12-13T20:05:38.155Z,96642.61
2018-12-13T20:08:07.401Z,96637.45
2018-12-13T20:10:34.813Z,96649.80
2018-12-13T20:13:02.319Z,96649.89
2018-12-13T20:15:29.755Z,96649.75
2018-12-13T20:17:57.182Z,96645.31
2018-12-13T20:20:24.704Z,96646.09
2018-12-13T20:22:53.673Z,96640.45
2018-12-13T20:25:21.084Z,96649.20
2018-12-13T20:27:48.599Z,96645.77
2018-12-13T20:30:16.073Z,96641.25
2018-12-13T20:32:43.488Z,96639.53
2018-12-13T20:35:10.990Z,96643.19
2018-12-13T20:37:38.483Z,96645.05
2018-12-13T20:40:05.903Z,96643.88
2018-12-13T20:42:33.305Z,96648.04
2018-12-13T20:45:00.713Z,96647.58
2018-12-13T20:47:28.139Z,96644.86
2018-12-13T20:49:55.542Z,96652.12
2018-12-13T20:52:22.986Z,96651.55
2018-12-13T20:54:50.408Z,96659.09
2018-12-13T20:57:18.639Z,96652.44
2018-12-13T20:59:46.037Z,96660.84
2018-12-13T21:02:13.547Z,96658.17
2018-12-13T21:04:40.979Z,96658.77
2018-12-13T21:07:14.160Z,96654.56
2018-12-13T21:09:41.641Z,96657.56
2018-12-13T21:12:09.048Z,96661.73
2018-12-13T21:14:36.509Z,96659.23
2018-12-13T21:17:03.915Z,96665.38
2018-12-13T21:19:31.379Z,96660.28
2018-12-13T21:21:58.818Z,96665.45
2018-12-13T21:24:26.232Z,96666.10
2018-12-13T21:26:53.693Z,96663.11
2018-12-13T21:29:21.141Z,96662.22
2018-12-13T21:31:49.432Z,96664.72
2018-12-13T21:34:16.936Z,96667.72
2018-12-13T21:36:45.143Z,96673.09
2018-12-13T21:39:12.565Z,96671.66
2018-12-13T21:41:40.121Z,96667.50
2018-12-13T21:44:07.514Z,96677.27
2018-12-13T21:46:35.065Z,96670.05
2018-12-13T21:49:02.473Z,96671.75
2018-12-13T21:51:29.879Z,96668.19
2018-12-13T21:53:57.287Z,96661.64
2018-12-13T21:56:24.786Z,96660.58
2018-12-13T21:58:52.253Z,96659.28
2018-12-13T22:01:21.400Z,96659.64
2018-12-13T22:03:49.472Z,96658.57
2018-12-13T22:06:16.875Z,96665.73
2018-12-13T22:08:44.301Z,96660.92
2018-12-13T22:11:12.701Z,96661.70
2018-12-13T22:13:40.118Z,96664.77
2018-12-13T22:16:07.523Z,96674.85
2018-12-13T22:18:35.114Z,96672.31
2018-12-13T22:21:02.592Z,96676.33
2018-12-13T22:23:29.991Z,96674.62
2018-12-13T22:25:57.601Z,96675.69
2018-12-13T22:28:25.138Z,96675.27
2018-12-13T22:30:52.539Z,96679.06
2018-12-13T22:33:20.179Z,96678.27
2018-12-13T22:35:47.579Z,96672.50
2018-12-13T22:38:15.505Z,96673.56
2018-12-13T22:40:42.963Z,96681.93
2018-12-13T22:43:10.655Z,96681.66
2018-12-13T22:45:38.054Z,96676.52
2018-12-13T22:48:05.480Z,96675.13
2018-12-13T22:50:32.919Z,96679.48
2018-12-13T22:53:00.403Z,96675.45
2018-12-13T22:55:27.797Z,96674.20
2018-12-13T22:57:55.218Z,96678.83
2018-12-13T23:00:22.667Z,96675.50
2018-12-13T23:02:50.064Z,96682.80
2018-12-13T23:05:17.497Z,96679.97
2018-12-13T23:07:44.940Z,96683.86
2018-12-13T23:10:12.345Z,96682.98
2018-12-13T23:12:39.793Z,96689.22
2018-12-13T23:15:07.249Z,96680.59
2018-12-13T23:17:34.673Z,96683.50
2018-12-13T23:20:02.109Z,96688.61
2018-12-13T23:22:29.549Z,96682.01
2018-12-13T23:24:56.950Z,96679.41
2018-12-13T23:27:24.670Z,96682.42
2018-12-13T23:29:52.102Z,96679.76
2018-12-13T23:32:19.498Z,96682.53
2018-12-13T23:34:47.708Z,96682.77
2018-12-13T23:37:15.116Z,96682.53
2018-12-13T23:39:42.622Z,96678.97
2018-12-13T23:42:10.143Z,96686.97
2018-12-13T23:44:37.573Z,96685.03
2018-12-13T23:47:05.936Z,96681.64
2018-12-13T23:49:33.333Z,96679.53
2018-12-13T23:52:00.750Z,96685.12
2018-12-13T23:54:28.158Z,96684.28
2018-12-13T23:56:55.588Z,96681.74
2018-12-13T23:59:23.024Z,96677.45
